sensor_id;sensor_type;location;lat;lon;timestamp;pressure;altitude;pressure_sealevel;temperature;humidity
73628;BME280;61923;51.846;5.856;2022-07-19T00:02:06;101725.72;;;26.43;43.53
73628;BME280;61923;51.846;5.856;2022-07-19T00:04:33;101715.28;;;26.41;43.66
73628;BME280;61923;51.846;5.856;2022-07-19T00:06:58;101715.28;;;26.41;43.35
73628;BME280;61923;51.846;5.856;2022-07-19T00:09:25;101716.31;;;26.40;43.61
73628;BME280;61923;51.846;5.856;2022-07-19T00:11:52;101706.06;;;26.37;43.61
73628;BME280;61923;51.846;5.856;2022-07-19T00:14:17;101706.06;;;26.37;43.44
73628;BME280;61923;51.846;5.856;2022-07-19T00:16:43;101706.28;;;26.36;43.44
73628;BME280;61923;51.846;5.856;2022-07-19T00:19:08;101716.72;;;26.37;43.58
73628;BME280;61923;51.846;5.856;2022-07-19T00:21:34;101710.59;;;26.37;43.63
73628;BME280;61923;51.846;5.856;2022-07-19T00:23:59;101707.31;;;26.35;43.47
73628;BME280;61923;51.846;5.856;2022-07-19T00:26:28;101704.47;;;26.36;43.54
73628;BME280;61923;51.846;5.856;2022-07-19T00:28:54;101695.88;;;26.34;43.67
73628;BME280;61923;51.846;5.856;2022-07-19T00:31:21;101701.19;;;26.34;43.69
73628;BME280;61923;51.846;5.856;2022-07-19T00:33:46;101692.59;;;26.32;43.61
73628;BME280;61923;51.846;5.856;2022-07-19T00:36:12;101700.59;;;26.32;44.13
73628;BME280;61923;51.846;5.856;2022-07-19T00:38:38;101693.59;;;26.31;43.63
73628;BME280;61923;51.846;5.856;2022-07-19T00:41:04;101688.50;;;26.30;43.98
73628;BME280;61923;51.846;5.856;2022-07-19T00:43:29;101693.81;;;26.30;44.07
73628;BME280;61923;51.846;5.856;2022-07-19T00:45:55;101697.53;;;26.29;43.80
73628;BME280;61923;51.846;5.856;2022-07-19T00:48:21;101687.88;;;26.28;43.88
73628;BME280;61923;51.846;5.856;2022-07-19T00:50:47;101690.53;;;26.28;44.26
73628;BME280;61923;51.846;5.856;2022-07-19T00:53:13;101687.28;;;26.26;44.04
73628;BME280;61923;51.846;5.856;2022-07-19T00:55:40;101688.31;;;26.25;43.98
73628;BME280;61923;51.846;5.856;2022-07-19T00:58:07;101684.81;;;26.24;43.93
73628;BME280;61923;51.846;5.856;2022-07-19T01:00:34;101692.19;;;26.22;44.20
73628;BME280;61923;51.846;5.856;2022-07-19T01:03:00;101688.53;;;26.23;44.50
73628;BME280;61923;51.846;5.856;2022-07-19T01:05:26;101691.38;;;26.21;44.28
73628;BME280;61923;51.846;5.856;2022-07-19T01:07:52;101687.31;;;26.19;44.44
73628;BME280;61923;51.846;5.856;2022-07-19T01:10:18;101685.06;;;26.16;44.43
73628;BME280;61923;51.846;5.856;2022-07-19T01:12:43;101697.34;;;26.17;44.15
73628;BME280;61923;51.846;5.856;2022-07-19T01:15:15;101698.34;;;26.16;44.54
73628;BME280;61923;51.846;5.856;2022-07-19T01:17:40;101698.59;;;26.14;44.42
73628;BME280;61923;51.846;5.856;2022-07-19T01:20:07;101693.47;;;26.13;44.30
73628;BME280;61923;51.846;5.856;2022-07-19T01:22:33;101697.97;;;26.12;44.62
73628;BME280;61923;51.846;5.856;2022-07-19T01:24:58;101696.34;;;26.11;44.56
73628;BME280;61923;51.846;5.856;2022-07-19T01:27:24;101692.25;;;26.09;44.47
73628;BME280;61923;51.846;5.856;2022-07-19T01:29:51;101691.22;;;26.10;44.92
73628;BME280;61923;51.846;5.856;2022-07-19T01:32:17;101699.63;;;26.07;44.63
73628;BME280;61923;51.846;5.856;2022-07-19T01:34:42;101696.97;;;26.07;44.83
73628;BME280;61923;51.846;5.856;2022-07-19T01:37:08;101706.56;;;26.08;44.64
73628;BME280;61923;51.846;5.856;2022-07-19T01:39:33;101702.50;;;26.05;44.65
73628;BME280;61923;51.846;5.856;2022-07-19T01:41:59;101708.84;;;26.04;44.65
73628;BME280;61923;51.846;5.856;2022-07-19T01:44:24;101702.50;;;26.05;44.63
73628;BME280;61923;51.846;5.856;2022-07-19T01:46:50;101704.56;;;26.03;44.74
73628;BME280;61923;51.846;5.856;2022-07-19T01:49:15;101701.88;;;26.03;44.87
73628;BME280;61923;51.846;5.856;2022-07-19T01:51:40;101698.63;;;26.01;44.87
73628;BME280;61923;51.846;5.856;2022-07-19T01:54:06;101693.28;;;26.01;45.28
73628;BME280;61923;51.846;5.856;2022-07-19T01:56:31;101700.47;;;26.00;45.10
73628;BME280;61923;51.846;5.856;2022-07-19T01:58:57;101700.69;;;25.99;44.91
73628;BME280;61923;51.846;5.856;2022-07-19T02:01:22;101692.88;;;25.97;44.97
73628;BME280;61923;51.846;5.856;2022-07-19T02:03:47;101696.59;;;25.96;45.16
73628;BME280;61923;51.846;5.856;2022-07-19T02:06:13;101695.75;;;25.96;45.29
73628;BME280;61923;51.846;5.856;2022-07-19T02:08:38;101695.97;;;25.94;45.38
73628;BME280;61923;51.846;5.856;2022-07-19T02:11:06;101689.81;;;25.94;45.15
73628;BME280;61923;51.846;5.856;2022-07-19T02:13:50;101695.38;;;25.92;45.15
73628;BME280;61923;51.846;5.856;2022-07-19T02:16:15;101689.22;;;25.92;45.02
73628;BME280;61923;51.846;5.856;2022-07-19T02:18:41;101687.59;;;25.91;45.46
73628;BME280;61923;51.846;5.856;2022-07-19T02:21:06;101681.63;;;25.89;45.56
73628;BME280;61923;51.846;5.856;2022-07-19T02:23:32;101679.78;;;25.89;45.19
73628;BME280;61923;51.846;5.856;2022-07-19T02:25:57;101677.31;;;25.88;45.83
73628;BME280;61923;51.846;5.856;2022-07-19T02:28:23;101679.16;;;25.87;45.45
73628;BME280;61923;51.846;5.856;2022-07-19T02:30:49;101677.53;;;25.86;45.49
73628;BME280;61923;51.846;5.856;2022-07-19T02:33:14;101681.84;;;25.87;45.22
73628;BME280;61923;51.846;5.856;2022-07-19T02:35:39;101675.91;;;25.85;45.47
73628;BME280;61923;51.846;5.856;2022-07-19T02:38:05;101677.94;;;25.83;45.73
73628;BME280;61923;51.846;5.856;2022-07-19T02:40:31;101667.31;;;25.83;45.21
73628;BME280;61923;51.846;5.856;2022-07-19T02:42:56;101659.13;;;25.78;45.63
73628;BME280;61923;51.846;5.856;2022-07-19T02:45:21;101660.56;;;25.80;45.24
73628;BME280;61923;51.846;5.856;2022-07-19T02:47:47;101659.72;;;25.80;45.89
73628;BME280;61923;51.846;5.856;2022-07-19T02:50:12;101662.38;;;25.80;45.46
73628;BME280;61923;51.846;5.856;2022-07-19T02:52:38;101661.59;;;25.79;45.68
73628;BME280;61923;51.846;5.856;2022-07-19T02:55:04;101661.78;;;25.78;45.80
73628;BME280;61923;51.846;5.856;2022-07-19T02:57:29;101656.69;;;25.76;45.88
73628;BME280;61923;51.846;5.856;2022-07-19T02:59:55;101658.31;;;25.77;45.78
73628;BME280;61923;51.846;5.856;2022-07-19T03:02:20;101652.19;;;25.77;45.72
73628;BME280;61923;51.846;5.856;2022-07-19T03:04:45;101653.19;;;25.76;45.88
73628;BME280;61923;51.846;5.856;2022-07-19T03:07:11;101657.50;;;25.77;45.62
73628;BME280;61923;51.846;5.856;2022-07-19T03:09:36;101648.91;;;25.75;45.96
73628;BME280;61923;51.846;5.856;2022-07-19T03:12:02;101652.59;;;25.74;45.87
73628;BME280;61923;51.846;5.856;2022-07-19T03:14:28;101650.97;;;25.73;45.95
73628;BME280;61923;51.846;5.856;2022-07-19T03:16:53;101645.84;;;25.71;45.97
73628;BME280;61923;51.846;5.856;2022-07-19T03:19:18;101651.97;;;25.72;45.93
73628;BME280;61923;51.846;5.856;2022-07-19T03:21:44;101658.34;;;25.71;46.17
73628;BME280;61923;51.846;5.856;2022-07-19T03:24:09;101648.69;;;25.70;45.78
73628;BME280;61923;51.846;5.856;2022-07-19T03:26:34;101643.38;;;25.70;45.73
73628;BME280;61923;51.846;5.856;2022-07-19T03:29:00;101648.91;;;25.68;45.81
73628;BME280;61923;51.846;5.856;2022-07-19T03:31:25;101648.91;;;25.68;45.94
73628;BME280;61923;51.846;5.856;2022-07-19T03:33:51;101643.81;;;25.67;46.18
73628;BME280;61923;51.846;5.856;2022-07-19T03:36:16;101647.28;;;25.67;46.07
73628;BME280;61923;51.846;5.856;2022-07-19T03:38:42;101651.78;;;25.67;46.11
73628;BME280;61923;51.846;5.856;2022-07-19T03:41:07;101655.47;;;25.66;45.81
73628;BME280;61923;51.846;5.856;2022-07-19T03:43:33;101662.44;;;25.67;46.13
73628;BME280;61923;51.846;5.856;2022-07-19T03:45:58;101653.00;;;25.64;45.73
73628;BME280;61923;51.846;5.856;2022-07-19T03:48:24;101657.50;;;25.63;45.85
73628;BME280;61923;51.846;5.856;2022-07-19T03:50:49;101662.63;;;25.65;46.19
73628;BME280;61923;51.846;5.856;2022-07-19T03:53:15;101665.09;;;25.67;46.08
73628;BME280;61923;51.846;5.856;2022-07-19T03:55:40;101660.78;;;25.66;45.84
73628;BME280;61923;51.846;5.856;2022-07-19T03:58:06;101655.47;;;25.66;45.81
73628;BME280;61923;51.846;5.856;2022-07-19T04:00:31;101657.13;;;25.67;46.19
73628;BME280;61923;51.846;5.856;2022-07-19T04:02:56;101660.78;;;25.66;46.05
73628;BME280;61923;51.846;5.856;2022-07-19T04:05:22;101657.94;;;25.67;46.15
73628;BME280;61923;51.846;5.856;2022-07-19T04:07:47;101653.41;;;25.68;45.93
73628;BME280;61923;51.846;5.856;2022-07-19T04:10:13;101658.53;;;25.69;46.11
73628;BME280;61923;51.846;5.856;2022-07-19T04:12:38;101651.56;;;25.68;46.15
73628;BME280;61923;51.846;5.856;2022-07-19T04:15:05;101643.81;;;25.67;45.68
73628;BME280;61923;51.846;5.856;2022-07-19T04:17:31;101656.28;;;25.73;45.92
73628;BME280;61923;51.846;5.856;2022-07-19T04:19:56;101652.59;;;25.74;45.79
73628;BME280;61923;51.846;5.856;2022-07-19T04:22:21;101653.44;;;25.74;45.94
73628;BME280;61923;51.846;5.856;2022-07-19T04:24:49;101659.34;;;25.76;45.72
73628;BME280;61923;51.846;5.856;2022-07-19T04:27:14;101662.63;;;25.78;46.02
73628;BME280;61923;51.846;5.856;2022-07-19T04:29:40;101656.25;;;25.79;45.93
73628;BME280;61923;51.846;5.856;2022-07-19T04:32:05;101666.69;;;25.81;45.48
73628;BME280;61923;51.846;5.856;2022-07-19T04:34:31;101658.72;;;25.81;45.43
73628;BME280;61923;51.846;5.856;2022-07-19T04:36:57;101663.59;;;25.84;45.55
73628;BME280;61923;51.846;5.856;2022-07-19T04:39:22;101656.47;;;25.84;45.75
73628;BME280;61923;51.846;5.856;2022-07-19T04:41:48;101658.69;;;25.88;45.59
73628;BME280;61923;51.846;5.856;2022-07-19T04:44:13;101656.63;;;25.90;45.66
73628;BME280;61923;51.846;5.856;2022-07-19T04:46:38;101654.84;;;25.90;45.67
73628;BME280;61923;51.846;5.856;2022-07-19T04:49:04;101651.16;;;25.91;45.56
73628;BME280;61923;51.846;5.856;2022-07-19T04:51:29;101652.81;;;25.92;45.52
73628;BME280;61923;51.846;5.856;2022-07-19T04:53:55;101654.00;;;25.96;45.37
73628;BME280;61923;51.846;5.856;2022-07-19T04:56:20;101657.47;;;25.97;45.45
73628;BME280;61923;51.846;5.856;2022-07-19T04:58:46;101656.25;;;25.99;45.61
73628;BME280;61923;51.846;5.856;2022-07-19T05:01:11;101654.19;;;26.01;45.17
73628;BME280;61923;51.846;5.856;2022-07-19T05:03:36;101657.44;;;26.03;45.50
73628;BME280;61923;51.846;5.856;2022-07-19T05:06:02;101659.91;;;26.05;45.16
73628;BME280;61923;51.846;5.856;2022-07-19T05:08:27;101657.66;;;26.09;45.52
73628;BME280;61923;51.846;5.856;2022-07-19T05:10:53;101652.13;;;26.10;45.02
73628;BME280;61923;51.846;5.856;2022-07-19T05:13:18;101650.28;;;26.11;44.87
73628;BME280;61923;51.846;5.856;2022-07-19T05:15:45;101650.88;;;26.13;44.81
73628;BME280;61923;51.846;5.856;2022-07-19T05:18:10;101648.81;;;26.15;45.20
73628;BME280;61923;51.846;5.856;2022-07-19T05:20:36;101651.28;;;26.16;45.06
73628;BME280;61923;51.846;5.856;2022-07-19T05:23:01;101664.97;;;26.20;45.00
73628;BME280;61923;51.846;5.856;2022-07-19T05:25:27;101649.41;;;26.23;45.10
73628;BME280;61923;51.846;5.856;2022-07-19T05:27:52;101653.88;;;26.30;44.91
73628;BME280;61923;51.846;5.856;2022-07-19T05:30:18;101649.16;;;26.38;44.19
73628;BME280;61923;51.846;5.856;2022-07-19T05:32:43;101655.22;;;26.46;44.34
73628;BME280;61923;51.846;5.856;2022-07-19T05:35:09;101645.78;;;26.50;43.96
73628;BME280;61923;51.846;5.856;2022-07-19T05:37:34;101649.44;;;26.55;44.37
73628;BME280;61923;51.846;5.856;2022-07-19T05:40:00;101650.28;;;26.62;43.72
73628;BME280;61923;51.846;5.856;2022-07-19T05:42:25;101650.81;;;26.71;43.83
73628;BME280;61923;51.846;5.856;2022-07-19T05:44:51;101652.22;;;26.80;43.67
73628;BME280;61923;51.846;5.856;2022-07-19T05:47:16;101652.56;;;26.91;43.26
73628;BME280;61923;51.846;5.856;2022-07-19T05:49:43;101652.00;;;27.07;42.91
73628;BME280;61923;51.846;5.856;2022-07-19T05:52:08;101650.97;;;27.40;42.31
73628;BME280;61923;51.846;5.856;2022-07-19T05:54:33;101653.06;;;27.75;41.76
73628;BME280;61923;51.846;5.856;2022-07-19T05:56:59;101648.13;;;27.97;41.14
73628;BME280;61923;51.846;5.856;2022-07-19T05:59:24;101644.44;;;28.16;40.85
73628;BME280;61923;51.846;5.856;2022-07-19T06:01:50;101651.59;;;28.34;40.22
73628;BME280;61923;51.846;5.856;2022-07-19T06:04:15;101650.38;;;28.49;39.44
73628;BME280;61923;51.846;5.856;2022-07-19T06:06:41;101651.41;;;28.66;39.08
73628;BME280;61923;51.846;5.856;2022-07-19T06:09:07;101654.69;;;28.80;38.99
73628;BME280;61923;51.846;5.856;2022-07-19T06:11:38;101659.72;;;29.00;38.84
73628;BME280;61923;51.846;5.856;2022-07-19T06:14:05;101656.41;;;29.16;38.65
73628;BME280;61923;51.846;5.856;2022-07-19T06:16:32;101651.41;;;29.32;37.98
73628;BME280;61923;51.846;5.856;2022-07-19T06:18:58;101657.09;;;29.47;37.82
73628;BME280;61923;51.846;5.856;2022-07-19T06:21:23;101652.09;;;29.63;37.61
73628;BME280;61923;51.846;5.856;2022-07-19T06:23:49;101653.50;;;29.77;36.97
73628;BME280;61923;51.846;5.856;2022-07-19T06:26:15;101645.22;;;29.90;36.86
73628;BME280;61923;51.846;5.856;2022-07-19T06:28:41;101664.75;;;30.03;36.56
73628;BME280;61923;51.846;5.856;2022-07-19T06:31:11;101649.38;;;30.10;36.56
73628;BME280;61923;51.846;5.856;2022-07-19T06:33:41;101648.16;;;30.17;36.23
73628;BME280;61923;51.846;5.856;2022-07-19T06:36:07;101648.03;;;30.24;36.17
73628;BME280;61923;51.846;5.856;2022-07-19T06:38:33;101646.59;;;30.33;36.47
73628;BME280;61923;51.846;5.856;2022-07-19T06:40:59;101646.47;;;30.40;36.47
73628;BME280;61923;51.846;5.856;2022-07-19T06:43:24;101643.16;;;30.50;36.09
73628;BME280;61923;51.846;5.856;2022-07-19T06:45:49;101633.09;;;30.57;35.53
73628;BME280;61923;51.846;5.856;2022-07-19T06:48:15;101636.22;;;30.66;35.95
73628;BME280;61923;51.846;5.856;2022-07-19T06:50:40;101632.28;;;30.73;35.90
73628;BME280;61923;51.846;5.856;2022-07-19T06:53:06;101628.16;;;30.83;35.68
73628;BME280;61923;51.846;5.856;2022-07-19T06:55:31;101628.38;;;30.93;35.60
73628;BME280;61923;51.846;5.856;2022-07-19T06:57:57;101643.81;;;31.03;34.96
73628;BME280;61923;51.846;5.856;2022-07-19T07:00:23;101638.78;;;31.06;35.48
73628;BME280;61923;51.846;5.856;2022-07-19T07:02:48;101641.59;;;31.16;35.23
73628;BME280;61923;51.846;5.856;2022-07-19T07:05:14;101639.06;;;31.27;34.46
73628;BME280;61923;51.846;5.856;2022-07-19T07:07:39;101643.78;;;31.36;34.84
73628;BME280;61923;51.846;5.856;2022-07-19T07:10:07;101648.38;;;31.41;34.85
73628;BME280;61923;51.846;5.856;2022-07-19T07:12:34;101644.50;;;31.49;34.72
73628;BME280;61923;51.846;5.856;2022-07-19T07:14:59;101634.66;;;31.54;34.16
73628;BME280;61923;51.846;5.856;2022-07-19T07:17:25;101638.53;;;31.64;34.14
73628;BME280;61923;51.846;5.856;2022-07-19T07:19:51;101634.31;;;31.68;33.98
73628;BME280;61923;51.846;5.856;2022-07-19T07:22:16;101640.59;;;31.79;33.78
73628;BME280;61923;51.846;5.856;2022-07-19T07:24:42;101637.72;;;31.85;33.94
73628;BME280;61923;51.846;5.856;2022-07-19T07:27:07;101644.25;;;31.89;34.17
73628;BME280;61923;51.846;5.856;2022-07-19T07:29:33;101650.22;;;31.96;33.88
73628;BME280;61923;51.846;5.856;2022-07-19T07:31:58;101643.38;;;32.06;33.73
73628;BME280;61923;51.846;5.856;2022-07-19T07:34:24;101651.22;;;32.12;33.48
73628;BME280;61923;51.846;5.856;2022-07-19T07:36:49;101640.56;;;32.18;33.68
73628;BME280;61923;51.846;5.856;2022-07-19T07:39:15;101644.38;;;32.22;33.37
73628;BME280;61923;51.846;5.856;2022-07-19T07:41:40;101639.25;;;32.25;33.62
73628;BME280;61923;51.846;5.856;2022-07-19T07:44:06;101639.03;;;32.27;33.66
73628;BME280;61923;51.846;5.856;2022-07-19T07:46:31;101638.53;;;32.30;33.30
73628;BME280;61923;51.846;5.856;2022-07-19T07:48:57;101641.00;;;32.37;33.41
73628;BME280;61923;51.846;5.856;2022-07-19T07:51:23;101634.56;;;32.38;32.99
73628;BME280;61923;51.846;5.856;2022-07-19T07:53:49;101638.56;;;32.35;33.31
73628;BME280;61923;51.846;5.856;2022-07-19T07:56:14;101634.31;;;32.39;33.32
73628;BME280;61923;51.846;5.856;2022-07-19T07:58:39;101638.38;;;32.42;33.51
73628;BME280;61923;51.846;5.856;2022-07-19T08:01:05;101640.00;;;32.43;33.60
73628;BME280;61923;51.846;5.856;2022-07-19T08:03:31;101635.72;;;32.47;33.50
73628;BME280;61923;51.846;5.856;2022-07-19T08:05:56;101629.53;;;32.46;33.41
73628;BME280;61923;51.846;5.856;2022-07-19T08:08:23;101631.69;;;32.44;33.08
73628;BME280;61923;51.846;5.856;2022-07-19T08:10:56;101631.72;;;32.49;33.22
73628;BME280;61923;51.846;5.856;2022-07-19T08:13:22;101623.63;;;32.44;33.16
73628;BME280;61923;51.846;5.856;2022-07-19T08:15:48;101621.47;;;32.46;33.27
73628;BME280;61923;51.846;5.856;2022-07-19T08:18:14;101620.72;;;32.51;33.38
73628;BME280;61923;51.846;5.856;2022-07-19T08:20:43;101616.56;;;32.38;33.71
73628;BME280;61923;51.846;5.856;2022-07-19T08:23:08;101621.41;;;32.41;33.73
73628;BME280;61923;51.846;5.856;2022-07-19T08:25:34;101618.94;;;32.34;33.95
73628;BME280;61923;51.846;5.856;2022-07-19T08:28:00;101621.41;;;32.41;33.87
73628;BME280;61923;51.846;5.856;2022-07-19T08:30:26;101629.78;;;32.45;33.84
73628;BME280;61923;51.846;5.856;2022-07-19T08:32:52;101619.00;;;32.40;33.77
73628;BME280;61923;51.846;5.856;2022-07-19T08:35:17;101623.84;;;32.43;33.47
73628;BME280;61923;51.846;5.856;2022-07-19T08:37:43;101623.38;;;32.46;33.75
73628;BME280;61923;51.846;5.856;2022-07-19T08:40:09;101624.16;;;32.46;34.02
73628;BME280;61923;51.846;5.856;2022-07-19T08:42:34;101629.84;;;32.50;34.04
73628;BME280;61923;51.846;5.856;2022-07-19T08:45:03;101619.59;;;32.47;33.88
73628;BME280;61923;51.846;5.856;2022-07-19T08:47:30;101616.72;;;32.53;33.43
73628;BME280;61923;51.846;5.856;2022-07-19T08:49:58;101619.16;;;32.55;33.34
73628;BME280;61923;51.846;5.856;2022-07-19T08:52:25;101620.22;;;32.54;33.74
73628;BME280;61923;51.846;5.856;2022-07-19T08:54:50;101615.63;;;32.54;33.65
73628;BME280;61923;51.846;5.856;2022-07-19T08:57:16;101612.41;;;32.52;33.67
73628;BME280;61923;51.846;5.856;2022-07-19T09:00:00;101608.16;;;32.57;33.94
73628;BME280;61923;51.846;5.856;2022-07-19T09:02:26;101616.47;;;32.55;34.04
73628;BME280;61923;51.846;5.856;2022-07-19T09:07:26;101603.84;;;32.56;33.73
73628;BME280;61923;51.846;5.856;2022-07-19T09:09:52;101603.56;;;32.57;33.77
73628;BME280;61923;51.846;5.856;2022-07-19T09:12:17;101603.53;;;32.52;33.89
73628;BME280;61923;51.846;5.856;2022-07-19T09:14:53;101596.00;;;32.54;33.64
73628;BME280;61923;51.846;5.856;2022-07-19T09:17:19;101601.16;;;32.56;33.51
73628;BME280;61923;51.846;5.856;2022-07-19T09:19:47;101596.25;;;32.52;33.95
73628;BME280;61923;51.846;5.856;2022-07-19T09:22:14;101591.69;;;32.53;33.88
73628;BME280;61923;51.846;5.856;2022-07-19T09:24:46;101584.69;;;32.52;33.88
73628;BME280;61923;51.846;5.856;2022-07-19T09:27:17;101587.88;;;32.49;34.06
73628;BME280;61923;51.846;5.856;2022-07-19T09:29:45;101588.41;;;32.46;33.96
73628;BME280;61923;51.846;5.856;2022-07-19T09:32:19;101587.03;;;32.43;33.76
73628;BME280;61923;51.846;5.856;2022-07-19T09:34:59;101584.63;;;32.42;34.05
73628;BME280;61923;51.846;5.856;2022-07-19T09:37:33;101592.06;;;32.34;34.32
73628;BME280;61923;51.846;5.856;2022-07-19T09:40:06;101581.28;;;32.29;34.09
73628;BME280;61923;51.846;5.856;2022-07-19T09:42:40;101587.97;;;32.27;34.48
73628;BME280;61923;51.846;5.856;2022-07-19T09:45:13;101582.84;;;32.25;34.39
73628;BME280;61923;51.846;5.856;2022-07-19T09:47:42;101586.25;;;32.15;34.38
73628;BME280;61923;51.846;5.856;2022-07-19T09:50:19;101575.44;;;32.10;34.92
73628;BME280;61923;51.846;5.856;2022-07-19T09:52:47;101574.09;;;32.08;34.46
73628;BME280;61923;51.846;5.856;2022-07-19T09:55:14;101574.03;;;32.03;34.92
73628;BME280;61923;51.846;5.856;2022-07-19T09:57:42;101572.66;;;32.00;35.18
73628;BME280;61923;51.846;5.856;2022-07-19T10:00:09;101575.78;;;31.92;35.30
73628;BME280;61923;51.846;5.856;2022-07-19T10:02:37;101563.06;;;31.87;35.29
73628;BME280;61923;51.846;5.856;2022-07-19T10:05:04;101566.22;;;31.79;35.03
73628;BME280;61923;51.846;5.856;2022-07-19T10:07:31;101566.72;;;31.76;35.63
73628;BME280;61923;51.846;5.856;2022-07-19T10:09:58;101574.16;;;31.69;35.36
73628;BME280;61923;51.846;5.856;2022-07-19T10:12:25;101567.91;;;31.63;35.30
73628;BME280;61923;51.846;5.856;2022-07-19T10:14:51;101571.66;;;31.62;35.77
73628;BME280;61923;51.846;5.856;2022-07-19T10:19:42;101570.16;;;31.49;35.79
73628;BME280;61923;51.846;5.856;2022-07-19T10:22:14;101563.59;;;31.40;36.42
73628;BME280;61923;51.846;5.856;2022-07-19T10:29:48;101560.50;;;31.31;36.54
73628;BME280;61923;51.846;5.856;2022-07-19T10:32:14;101562.34;;;31.26;36.31
73628;BME280;61923;51.846;5.856;2022-07-19T10:34:41;101561.19;;;31.22;36.28
73628;BME280;61923;51.846;5.856;2022-07-19T10:37:08;101557.69;;;31.21;36.51
73628;BME280;61923;51.846;5.856;2022-07-19T10:39:38;101549.03;;;31.14;36.98
73628;BME280;61923;51.846;5.856;2022-07-19T10:44:33;101537.66;;;31.07;36.55
73628;BME280;61923;51.846;5.856;2022-07-19T10:46:58;101541.06;;;31.02;37.11
73628;BME280;61923;51.846;5.856;2022-07-19T10:49:44;101530.84;;;30.99;37.12
73628;BME280;61923;51.846;5.856;2022-07-19T10:57:52;101530.34;;;30.85;36.92
73628;BME280;61923;51.846;5.856;2022-07-19T11:02:45;101523.28;;;30.79;37.23
73628;BME280;61923;51.846;5.856;2022-07-19T11:05:29;101520.88;;;30.77;37.24
73628;BME280;61923;51.846;5.856;2022-07-19T11:07:56;101521.34;;;30.74;37.50
73628;BME280;61923;51.846;5.856;2022-07-19T11:10:23;101522.38;;;30.73;37.75
73628;BME280;61923;51.846;5.856;2022-07-19T11:12:49;101521.00;;;30.71;37.42
73628;BME280;61923;51.846;5.856;2022-07-19T11:15:14;101512.63;;;30.67;37.62
73628;BME280;61923;51.846;5.856;2022-07-19T11:17:56;101509.38;;;30.65;37.89
73628;BME280;61923;51.846;5.856;2022-07-19T11:20:33;101508.59;;;30.65;37.52
73628;BME280;61923;51.846;5.856;2022-07-19T11:23:00;101508.81;;;30.63;37.53
73628;BME280;61923;51.846;5.856;2022-07-19T11:25:30;101505.56;;;30.61;37.60
73628;BME280;61923;51.846;5.856;2022-07-19T11:27:57;101500.22;;;30.61;37.63
73628;BME280;61923;51.846;5.856;2022-07-19T11:30:24;101498.03;;;30.58;38.01
73628;BME280;61923;51.846;5.856;2022-07-19T11:33:00;101498.03;;;30.58;38.15
73628;BME280;61923;51.846;5.856;2022-07-19T11:35:27;101493.97;;;30.55;37.88
73628;BME280;61923;51.846;5.856;2022-07-19T11:37:55;101492.13;;;30.56;37.63
73628;BME280;61923;51.846;5.856;2022-07-19T11:40:23;101486.19;;;30.54;38.17
73628;BME280;61923;51.846;5.856;2022-07-19T11:42:49;101487.47;;;30.51;38.16
73628;BME280;61923;51.846;5.856;2022-07-19T11:47:45;101477.03;;;30.50;37.74
73628;BME280;61923;51.846;5.856;2022-07-19T11:50:13;101480.50;;;30.50;37.78
73628;BME280;61923;51.846;5.856;2022-07-19T11:52:51;101480.75;;;30.49;37.69
73628;BME280;61923;51.846;5.856;2022-07-19T11:55:18;101488.53;;;30.50;38.09
73628;BME280;61923;51.846;5.856;2022-07-19T11:57:44;101480.75;;;30.49;38.20
73628;BME280;61923;51.846;5.856;2022-07-19T12:00:11;101475.38;;;30.49;38.31
73628;BME280;61923;51.846;5.856;2022-07-19T12:03:13;101475.38;;;30.49;37.86
73628;BME280;61923;51.846;5.856;2022-07-19T12:05:39;101473.78;;;30.48;38.28
73628;BME280;61923;51.846;5.856;2022-07-19T12:08:07;101471.56;;;30.45;37.94
73628;BME280;61923;51.846;5.856;2022-07-19T12:10:40;101469.44;;;30.47;37.98
73628;BME280;61923;51.846;5.856;2022-07-19T12:13:08;101462.47;;;30.46;38.19
73628;BME280;61923;51.846;5.856;2022-07-19T12:15:52;101455.72;;;30.43;38.18
73628;BME280;61923;51.846;5.856;2022-07-19T12:18:21;101451.19;;;30.44;38.04
73628;BME280;61923;51.846;5.856;2022-07-19T12:21:15;101445.84;;;30.44;38.26
73628;BME280;61923;51.846;5.856;2022-07-19T12:23:41;101449.31;;;30.44;37.90
73628;BME280;61923;51.846;5.856;2022-07-19T12:26:06;101446.88;;;30.43;37.85
73628;BME280;61923;51.846;5.856;2022-07-19T12:28:32;101443.16;;;30.44;38.49
73628;BME280;61923;51.846;5.856;2022-07-19T12:31:02;101439.91;;;30.42;38.20
73628;BME280;61923;51.846;5.856;2022-07-19T12:33:28;101443.16;;;30.44;38.01
73628;BME280;61923;51.846;5.856;2022-07-19T12:35:54;101446.66;;;30.44;38.40
73628;BME280;61923;51.846;5.856;2022-07-19T12:38:27;101438.59;;;30.44;37.99
73628;BME280;61923;51.846;5.856;2022-07-19T12:41:04;101441.28;;;30.44;37.89
73628;BME280;61923;51.846;5.856;2022-07-19T12:43:30;101442.09;;;30.45;38.26
73628;BME280;61923;51.846;5.856;2022-07-19T12:45:59;101438.59;;;30.44;38.27
73628;BME280;61923;51.846;5.856;2022-07-19T12:48:26;101427.88;;;30.44;38.00
73628;BME280;61923;51.846;5.856;2022-07-19T12:50:52;101421.16;;;30.42;37.99
73628;BME280;61923;51.846;5.856;2022-07-19T12:53:17;101426.00;;;30.45;37.86
73628;BME280;61923;51.846;5.856;2022-07-19T12:55:44;101427.66;;;30.46;38.34
73628;BME280;61923;51.846;5.856;2022-07-19T12:58:10;101416.94;;;30.46;38.03
73628;BME280;61923;51.846;5.856;2022-07-19T13:00:37;101415.06;;;30.46;38.15
73628;BME280;61923;51.846;5.856;2022-07-19T13:03:04;101414.81;;;30.48;37.70
73628;BME280;61923;51.846;5.856;2022-07-19T13:05:30;101411.56;;;30.46;37.77
73628;BME280;61923;51.846;5.856;2022-07-19T13:07:56;101412.13;;;30.48;38.28
73628;BME280;61923;51.846;5.856;2022-07-19T13:10:22;101416.41;;;30.49;38.10
73628;BME280;61923;51.846;5.856;2022-07-19T13:12:48;101406.50;;;30.49;37.92